createdAt,value
2022-11-23T00:04:45.375Z,1.20
2022-11-23T00:09:50.447Z,0.73
2022-11-23T00:14:53.704Z,1.70
2022-11-23T00:19:59.808Z,1.25
2022-11-23T00:25:04.873Z,0.90
2022-11-23T00:30:09.794Z,1.30
2022-11-23T00:35:14.203Z,1.42
2022-11-23T00:40:20.251Z,1.30
2022-11-23T00:45:23.459Z,1.38
2022-11-23T00:50:26.992Z,1.80
2022-11-23T00:55:33.461Z,1.10
2022-11-23T01:00:36.786Z,1.83
2022-11-23T01:05:40.609Z,1.80
2022-11-23T01:10:48.102Z,2.17
2022-11-23T01:15:51.754Z,1.45
2022-11-23T01:20:56.799Z,1.85
2022-11-23T01:26:07.673Z,1.67
2022-11-23T01:31:13.082Z,1.40
2022-11-23T01:36:20.325Z,1.75
2022-11-23T01:41:26.873Z,1.77
2022-11-23T01:46:34.329Z,1.50
2022-11-23T01:51:40.644Z,1.70
2022-11-23T01:56:49.817Z,2.00
2022-11-23T02:01:53.827Z,1.17
2022-11-23T02:06:57.285Z,1.30
2022-11-23T02:12:04.308Z,2.00
2022-11-23T02:17:10.264Z,1.40
2022-11-23T02:22:18.599Z,1.60
2022-11-23T02:27:23.815Z,1.13
2022-11-23T02:32:27.275Z,1.30
2022-11-23T02:37:35.886Z,1.83
2022-11-23T02:42:41.872Z,1.70
2022-11-23T02:47:45.809Z,1.88
2022-11-23T02:53:39.228Z,1.55
2022-11-23T02:58:45.499Z,1.88
2022-11-23T03:03:49.200Z,1.52
2022-11-23T03:08:54.036Z,1.50
2022-11-23T03:13:59.451Z,1.50
2022-11-23T03:19:04.631Z,1.63
2022-11-23T03:24:12.111Z,1.60
2022-11-23T03:29:17.719Z,1.92
2022-11-23T03:34:24.599Z,1.50
2022-11-23T03:39:29.147Z,1.70
2022-11-23T03:44:34.641Z,1.50
2022-11-23T03:49:41.280Z,1.55
2022-11-23T03:54:47.343Z,1.60
2022-11-23T03:59:52.854Z,1.42
2022-11-23T04:04:56.500Z,1.45
2022-11-23T04:10:21.294Z,1.35
2022-11-23T04:15:54.368Z,1.50
2022-11-23T04:20:57.991Z,1.70
2022-11-23T04:26:02.728Z,1.40
2022-11-23T04:36:42.664Z,1.27
2022-11-23T04:41:48.497Z,1.50
2022-11-23T04:46:55.228Z,1.90
2022-11-23T04:52:00.618Z,1.90
2022-11-23T04:57:13.880Z,1.42
2022-11-23T05:02:22.025Z,1.48
2022-11-23T05:07:47.113Z,2.08
2022-11-23T05:12:53.148Z,1.38
2022-11-23T05:18:03.988Z,1.00
2022-11-23T05:23:09.880Z,1.80
2022-11-23T05:33:44.743Z,1.70
2022-11-23T05:38:52.033Z,1.77
2022-11-23T05:44:03.150Z,1.88
2022-11-23T05:49:15.029Z,1.70
2022-11-23T05:54:21.094Z,1.98
2022-11-23T05:59:37.096Z,1.98
2022-11-23T06:04:42.146Z,2.00
2022-11-23T06:09:49.303Z,1.90
2022-11-23T06:14:54.371Z,2.28
2022-11-23T06:20:03.720Z,2.20
2022-11-23T06:25:08.683Z,2.72
2022-11-23T06:30:13.658Z,2.10
2022-11-23T06:35:19.877Z,2.72
2022-11-23T06:40:25.327Z,1.83
2022-11-23T06:45:30.045Z,3.13
2022-11-23T06:50:45.810Z,2.75
2022-11-23T06:55:50.427Z,2.42
2022-11-23T07:00:56.790Z,2.58
2022-11-23T07:06:06.395Z,2.80
2022-11-23T07:11:15.975Z,2.55
2022-11-23T07:16:21.048Z,3.00
2022-11-23T07:21:28.997Z,2.95
2022-11-23T07:26:34.369Z,2.85
2022-11-23T07:31:40.221Z,3.08
2022-11-23T07:36:45.875Z,2.92
2022-11-23T07:41:51.498Z,2.92
2022-11-23T07:47:00.506Z,2.65
2022-11-23T07:52:05.586Z,3.22
2022-11-23T07:57:12.107Z,2.40
2022-11-23T08:02:17.502Z,2.25
2022-11-23T08:07:25.117Z,2.58
2022-11-23T08:12:28.698Z,3.00
2022-11-23T08:17:32.936Z,2.95
2022-11-23T08:22:38.431Z,3.00
2022-11-23T08:27:42.336Z,2.47
2022-11-23T08:32:45.796Z,2.63
2022-11-23T08:37:50.703Z,2.17
2022-11-23T08:42:54.170Z,2.55
2022-11-23T08:48:01.073Z,2.30
2022-11-23T08:53:08.970Z,1.92
2022-11-23T08:58:13.623Z,2.15
2022-11-23T09:03:17.478Z,2.13
2022-11-23T09:08:22.177Z,1.60
2022-11-23T09:13:30.164Z,1.70
2022-11-23T09:18:35.849Z,2.45
2022-11-23T09:23:42.776Z,1.88
2022-11-23T09:28:46.663Z,2.03
2022-11-23T09:33:53.939Z,2.50
2022-11-23T09:38:58.882Z,2.28
2022-11-23T09:44:03.862Z,2.30
2022-11-23T09:49:16.466Z,2.60
2022-11-23T09:54:26.292Z,2.83
2022-11-23T09:59:37.932Z,2.25
2022-11-23T10:04:41.556Z,2.35
2022-11-23T10:09:52.503Z,2.60
2022-11-23T10:15:09.727Z,2.42
2022-11-23T10:20:28.547Z,2.50
2022-11-23T10:25:39.039Z,2.07
2022-11-23T10:37:20.528Z,2.20
2022-11-23T10:42:40.015Z,1.73
2022-11-23T10:47:51.118Z,2.10
2022-11-23T10:52:56.247Z,1.65
2022-11-23T10:58:00.858Z,1.60
2022-11-23T11:03:05.071Z,1.40
2022-11-23T11:08:15.004Z,1.70
2022-11-23T11:13:31.051Z,1.65
2022-11-23T11:18:36.010Z,1.25
2022-11-23T11:23:41.547Z,1.38
2022-11-23T11:28:49.317Z,1.50
2022-11-23T11:33:55.477Z,1.45
2022-11-23T11:39:17.896Z,1.40
2022-11-23T11:44:25.070Z,1.05
2022-11-23T11:49:31.393Z,1.58
2022-11-23T11:54:39.284Z,1.30
2022-11-23T12:06:45.225Z,1.25
2022-11-23T12:11:50.005Z,1.70
2022-11-23T12:17:31.344Z,1.30
2022-11-23T12:22:46.915Z,1.20
2022-11-23T12:28:06.466Z,1.30
2022-11-23T12:34:07.796Z,1.10
2022-11-23T12:39:56.643Z,1.10
2022-11-23T12:52:28.508Z,1.10
2022-11-23T12:59:04.029Z,1.00
2022-11-23T13:10:55.788Z,1.02
2022-11-23T13:16:37.726Z,1.10
2022-11-23T13:22:11.336Z,0.90
2022-11-23T13:28:07.365Z,0.80
2022-11-23T13:33:37.006Z,1.30
2022-11-23T13:38:59.199Z,1.42
2022-11-23T13:44:26.007Z,0.95
2022-11-23T13:49:38.009Z,0.77
2022-11-23T14:00:47.831Z,0.80
2022-11-23T14:06:04.782Z,1.10
2022-11-23T14:11:13.945Z,0.90
2022-11-23T14:16:29.321Z,1.10
2022-11-23T14:27:57.414Z,1.00
2022-11-23T14:33:40.441Z,0.85
2022-11-23T14:39:47.686Z,0.70
2022-11-23T14:44:53.803Z,0.80
2022-11-23T14:50:01.729Z,1.38
2022-11-23T14:55:16.644Z,1.13
2022-11-23T15:00:43.438Z,1.10
2022-11-23T15:05:54.202Z,1.02
2022-11-23T15:11:17.075Z,1.60
2022-11-23T15:16:24.040Z,1.33
2022-11-23T15:21:28.443Z,1.08
2022-11-23T15:26:52.702Z,1.38
2022-11-23T15:37:28.171Z,1.27
2022-11-23T15:42:37.112Z,0.85
2022-11-23T15:47:40.555Z,0.90
2022-11-23T15:52:44.060Z,1.10
2022-11-23T15:57:49.107Z,1.10
2022-11-23T16:02:53.742Z,1.30
2022-11-23T16:08:01.930Z,0.82
2022-11-23T16:13:36.652Z,1.67
2022-11-23T16:18:45.780Z,1.33
2022-11-23T16:23:50.732Z,1.20
2022-11-23T16:28:55.265Z,1.20
2022-11-23T16:34:01.831Z,0.90
2022-11-23T16:39:06.045Z,1.30
2022-11-23T16:44:12.759Z,1.55
2022-11-23T16:49:18.423Z,1.58
2022-11-23T16:54:34.128Z,2.05
2022-11-23T16:59:37.516Z,2.10
2022-11-23T17:04:42.548Z,2.67
2022-11-23T17:09:45.883Z,2.83
2022-11-23T17:14:51.073Z,2.83
2022-11-23T17:19:59.707Z,4.22
2022-11-23T17:25:11.568Z,3.97
2022-11-23T17:30:22.223Z,3.55
2022-11-23T17:35:32.678Z,2.87
2022-11-23T17:40:39.326Z,3.17
2022-11-23T17:45:45.147Z,3.80
2022-11-23T17:50:49.847Z,4.03
2022-11-23T17:55:53.431Z,3.80
2022-11-23T18:00:58.200Z,3.67
2022-11-23T18:06:04.938Z,3.20
2022-11-23T18:11:09.210Z,2.63
2022-11-23T18:16:12.686Z,3.45
2022-11-23T18:21:19.047Z,3.40
2022-11-23T18:26:23.872Z,3.78
2022-11-23T18:31:28.308Z,3.58
2022-11-23T18:36:33.942Z,3.78
2022-11-23T18:41:37.584Z,5.05
2022-11-23T18:46:42.253Z,4.60
2022-11-23T18:51:51.032Z,4.85
2022-11-23T18:56:59.194Z,4.45
2022-11-23T19:02:03.324Z,4.95
2022-11-23T19:07:10.912Z,4.35
2022-11-23T19:12:14.869Z,4.20
2022-11-23T19:17:20.170Z,4.18
2022-11-23T19:22:25.982Z,3.70
2022-11-23T19:27:54.045Z,5.57
2022-11-23T19:32:57.965Z,2.70
2022-11-23T19:38:03.754Z,3.47
2022-11-23T19:43:08.431Z,3.35
2022-11-23T19:48:11.897Z,3.53
2022-11-23T19:53:17.227Z,4.40
2022-11-23T19:58:22.839Z,4.60
2022-11-23T20:03:26.508Z,3.78
2022-11-23T20:08:32.516Z,4.20
2022-11-23T20:13:35.804Z,6.03
2022-11-23T20:18:39.211Z,5.88
2022-11-23T20:23:43.986Z,5.78
2022-11-23T20:28:48.094Z,6.90
2022-11-23T20:34:00.330Z,6.70
2022-11-23T20:39:06.303Z,6.03
2022-11-23T20:44:12.718Z,4.68
2022-11-23T20:49:20.096Z,4.80
2022-11-23T20:54:25.054Z,5.18
2022-11-23T20:59:34.834Z,5.75
2022-11-23T21:04:38.308Z,4.55
2022-11-23T21:09:43.169Z,5.50
2022-11-23T21:14:49.615Z,4.95
2022-11-23T21:19:53.008Z,6.05
2022-11-23T21:24:58.579Z,6.30
2022-11-23T21:30:03.806Z,5.55
2022-11-23T21:35:08.804Z,5.00
2022-11-23T21:40:15.208Z,3.38
2022-11-23T21:45:19.852Z,3.20
2022-11-23T21:50:24.409Z,3.70
2022-11-23T21:55:30.292Z,3.95
2022-11-23T22:00:35.060Z,4.28
2022-11-23T22:05:39.014Z,5.50
2022-11-23T22:10:47.097Z,6.72
2022-11-23T22:15:52.876Z,5.60
2022-11-23T22:20:57.394Z,6.18
2022-11-23T22:26:07.347Z,6.20
2022-11-23T22:31:12.577Z,5.32
2022-11-23T22:36:17.346Z,5.65
2022-11-23T22:41:25.267Z,6.03
2022-11-23T22:46:32.478Z,5.63
2022-11-23T22:51:36.476Z,4.10
2022-11-23T22:56:42.862Z,4.05
2022-11-23T23:01:48.622Z,3.22
2022-11-23T23:06:52.441Z,3.40
2022-11-23T23:11:58.461Z,3.00
2022-11-23T23:17:05.393Z,3.00
2022-11-23T23:22:12.350Z,2.30
2022-11-23T23:27:18.129Z,2.15
2022-11-23T23:32:21.588Z,2.60
2022-11-23T23:37:25.919Z,2.50
2022-11-23T23:42:30.635Z,2.10
2022-11-23T23:47:33.896Z,2.80
2022-11-23T23:52:38.624Z,2.25
2022-11-23T23:57:44.577Z,2.70
